Terminal Aerodrome Forecast
Issued by NWS

Home | Current Version | Previous Version | Text Only | Print | Product List | Glossary On
Versions: 1 2 3 4 5 6 7 8 9 10 11 12 13 14
000
FTUS42 KTBW 261731
TAFPGD
TAF
KPGD 261731Z 2618/2718 22012KT P6SM SCT050
     FM270200 13005KT P6SM FEW050
     FM271400 17011KT P6SM FEW030
     FM271700 21012G18KT P6SM SCT050=

USA.gov is the U.S. government's official web portal to all federal, state and local government web resources and services.